Time;durP1;ratioP1;P1;durP2;ratioP2;P2;SDS_P1;SDS_P2;PMS_P1;PMS_P2;Temp;Humidity;BMP_temperature;BMP_pressure;BME280_temperature;BME280_humidity;BME280_pressure;Samples;Min_cycle;Max_cycle;Signal;HPM_P1;HPM_P2
2024/01/18 08:02:08;;;;;;;21.88;10.25;;;;;;;;;;5089538;27;20472;-80
2024/01/18 08:04:34;;;;;;;19.10;9.05;;;;;;;;;;5088085;28;20032;-77
2024/01/18 08:07:00;;;;;;;20.30;9.38;;;;;;;;;;5088323;28;20051;-81
2024/01/18 08:09:26;;;;;;;15.00;8.05;;;;;;;;;;5088100;28;20045;-82
2024/01/18 08:11:52;;;;;;;18.13;8.82;;;;;;;;;;5088009;28;20070;-81
2024/01/18 08:14:18;;;;;;;13.82;8.98;;;;;;;;;;5088436;28;20016;-80
2024/01/18 08:16:44;;;;;;;21.75;8.82;;;;;;;;;;5089504;28;20024;-81
2024/01/18 08:19:10;;;;;;;16.00;8.75;;;;;;;;;;5088413;28;20028;-81
2024/01/18 08:21:43;;;;;;;12.80;7.55;;;;;;;;;;5089224;28;20036;-79
2024/01/18 08:24:09;;;;;;;14.82;8.18;;;;;;;;;;5088504;28;20468;-79
2024/01/18 08:26:35;;;;;;;13.73;6.55;;;;;;;;;;5088909;28;20029;-79
2024/01/18 08:29:01;;;;;;;13.38;6.93;;;;;;;;;;5089261;28;20031;-79
2024/01/18 08:31:27;;;;;;;14.10;6.43;;;;;;;;;;5088703;28;20025;-77
2024/01/18 08:33:53;;;;;;;13.20;5.82;;;;;;;;;;5088682;28;20020;-78
2024/01/18 08:36:20;;;;;;;8.35;5.07;;;;;;;;;;5089057;28;20024;-77
2024/01/18 08:38:46;;;;;;;11.02;4.78;;;;;;;;;;5091723;28;20494;-78
2024/01/18 08:41:12;;;;;;;9.55;3.80;;;;;;;;;;5092449;28;20028;-77
2024/01/18 08:43:38;;;;;;;9.15;4.55;;;;;;;;;;5088585;28;20020;-76
2024/01/18 08:46:07;;;;;;;8.73;4.57;;;;;;;;;;5087864;28;20020;-76
2024/01/18 08:48:34;;;;;;;6.82;3.30;;;;;;;;;;5087621;28;20027;-77
2024/01/18 08:51:02;;;;;;;9.55;3.28;;;;;;;;;;5087685;28;20066;-76
2024/01/18 08:53:28;;;;;;;7.43;3.47;;;;;;;;;;5088793;28;20460;-77
2024/01/18 08:55:54;;;;;;;7.38;3.35;;;;;;;;;;5087622;28;20036;-77
2024/01/18 08:58:20;;;;;;;9.25;3.15;;;;;;;;;;5087332;28;20027;-77
2024/01/18 09:00:46;;;;;;;11.23;4.10;;;;;;;;;;5087074;28;20059;-77
2024/01/18 09:03:12;;;;;;;13.13;4.90;;;;;;;;;;5087498;28;20024;-77
2024/01/18 09:05:38;;;;;;;8.98;3.45;;;;;;;;;;5070166;28;20361;-77
2024/01/18 09:08:04;;;;;;;10.73;3.70;;;;;;;;;;5087286;28;20487;-77
2024/01/18 09:10:30;;;;;;;9.65;3.50;;;;;;;;;;5088137;28;20107;-78
2024/01/18 09:12:56;;;;;;;8.00;3.15;;;;;;;;;;5077926;28;20065;-77
2024/01/18 09:15:24;;;;;;;7.47;3.47;;;;;;;;;;5073170;28;20024;-77
2024/01/18 09:17:51;;;;;;;7.53;3.30;;;;;;;;;;5074964;28;20029;-76
2024/01/18 09:20:17;;;;;;;7.45;3.47;;;;;;;;;;5073476;28;20028;-77
2024/01/18 09:22:43;;;;;;;12.43;3.42;;;;;;;;;;5073645;28;20399;-77
2024/01/18 09:25:09;;;;;;;7.82;2.75;;;;;;;;;;5074774;28;20439;-77
2024/01/18 09:27:35;;;;;;;9.90;2.92;;;;;;;;;;5074970;28;20024;-80
2024/01/18 09:30:02;;;;;;;9.63;3.20;;;;;;;;;;5073988;28;20036;-80
2024/01/18 09:32:28;;;;;;;7.57;2.83;;;;;;;;;;5073526;28;20421;-79
2024/01/18 09:34:54;;;;;;;5.65;2.53;;;;;;;;;;5073228;28;20056;-78
2024/01/18 09:37:20;;;;;;;9.02;2.78;;;;;;;;;;5073204;28;20044;-78
2024/01/18 09:39:46;;;;;;;11.00;3.03;;;;;;;;;;5073504;28;20112;-78
2024/01/18 09:42:16;;;;;;;9.98;3.35;;;;;;;;;;5075252;28;20021;-79
2024/01/18 09:44:47;;;;;;;9.15;3.20;;;;;;;;;;5073226;28;20025;-78
2024/01/18 09:47:15;;;;;;;9.75;4.57;;;;;;;;;;5074502;28;20063;-78
2024/01/18 09:49:42;;;;;;;7.15;5.32;;;;;;;;;;5073094;28;20054;-78
2024/01/18 09:52:08;;;;;;;65.53;30.52;;;;;;;;;;5073370;28;20483;-78
2024/01/18 09:54:35;;;;;;;46.30;22.13;;;;;;;;;;5074267;28;20064;-80
2024/01/18 09:57:01;;;;;;;33.53;20.40;;;;;;;;;;5073530;28;20016;-80
2024/01/18 09:59:31;;;;;;;20.58;13.50;;;;;;;;;;5073187;28;20422;-81
2024/01/18 10:01:58;;;;;;;11.70;7.15;;;;;;;;;;5073203;28;20492;-82
2024/01/18 10:04:27;;;;;;;12.15;5.00;;;;;;;;;;5072871;28;20021;-81
2024/01/18 10:06:54;;;;;;;20.45;10.00;;;;;;;;;;5072735;28;20059;-82
2024/01/18 10:09:20;;;;;;;16.60;8.40;;;;;;;;;;5072896;28;20107;-82
2024/01/18 10:11:46;;;;;;;35.45;18.23;;;;;;;;;;5073132;28;20044;-83
2024/01/18 10:14:12;;;;;;;15.30;7.90;;;;;;;;;;5073247;28;20024;-83
2024/01/18 10:16:38;;;;;;;9.43;3.13;;;;;;;;;;5072539;28;20459;-83
2024/01/18 10:19:05;;;;;;;9.38;4.05;;;;;;;;;;5073132;28;20021;-83
2024/01/18 10:21:33;;;;;;;10.50;3.58;;;;;;;;;;5072962;28;20139;-83
2024/01/18 10:23:59;;;;;;;6.75;3.85;;;;;;;;;;5072319;28;20031;-84
2024/01/18 10:26:29;;;;;;;5.35;2.00;;;;;;;;;;5074070;28;20055;-84
2024/01/18 10:28:55;;;;;;;;;;;;;;;;;;5073619;28;20078;-83
2024/01/18 10:31:21;;;;;;;6.10;2.35;;;;;;;;;;5072772;28;19908;-82
2024/01/18 10:33:48;;;;;;;17.08;9.50;;;;;;;;;;5072704;28;20468;-82
2024/01/18 10:36:14;;;;;;;7.35;2.70;;;;;;;;;;5072802;28;20028;-81
2024/01/18 10:38:41;;;;;;;5.68;2.38;;;;;;;;;;5073540;28;20024;-81
2024/01/18 10:41:07;;;;;;;6.70;2.63;;;;;;;;;;5073860;28;20046;-81
2024/01/18 10:43:34;;;;;;;4.82;2.08;;;;;;;;;;5072449;28;20434;-81
2024/01/18 10:46:01;;;;;;;5.82;2.40;;;;;;;;;;5074179;28;20016;-81
2024/01/18 10:48:27;;;;;;;9.13;2.90;;;;;;;;;;5072756;28;20074;-81
2024/01/18 10:50:56;;;;;;;8.05;3.63;;;;;;;;;;5073100;28;20533;-81
2024/01/18 10:53:33;;;;;;;4.47;2.30;;;;;;;;;;5074628;28;20107;-81
2024/01/18 10:56:00;;;;;;;6.88;2.30;;;;;;;;;;5086485;28;20263;-77
2024/01/18 10:58:26;;;;;;;4.63;2.55;;;;;;;;;;5090112;28;20028;-77
2024/01/18 11:00:53;;;;;;;5.13;2.83;;;;;;;;;;5088503;28;20504;-76
2024/01/18 11:03:19;;;;;;;8.50;3.08;;;;;;;;;;5077280;28;20539;-79
2024/01/18 11:05:46;;;;;;;5.63;2.70;;;;;;;;;;5073071;28;20020;-79
2024/01/18 11:08:13;;;;;;;6.57;3.17;;;;;;;;;;5071924;28;20032;-79
2024/01/18 11:10:40;;;;;;;6.60;3.03;;;;;;;;;;5073067;28;20029;-78
2024/01/18 11:13:06;;;;;;;7.03;2.42;;;;;;;;;;5072956;28;20025;-78
2024/01/18 11:15:33;;;;;;;5.93;3.00;;;;;;;;;;5071185;28;20478;-79
2024/01/18 11:17:59;;;;;;;6.05;3.25;;;;;;;;;;5071583;28;20078;-77
2024/01/18 11:20:25;;;;;;;8.85;3.25;;;;;;;;;;5071499;28;20086;-78
2024/01/18 11:22:53;;;;;;;9.07;3.53;;;;;;;;;;5071698;28;20089;-79
2024/01/18 11:25:21;;;;;;;6.13;2.13;;;;;;;;;;5071405;28;20032;-79
2024/01/18 11:27:47;;;;;;;7.95;4.18;;;;;;;;;;5071380;28;20464;-78
2024/01/18 11:30:14;;;;;;;7.90;3.50;;;;;;;;;;5071490;28;20376;-79
2024/01/18 11:32:40;;;;;;;6.47;2.95;;;;;;;;;;5071980;28;20403;-78
2024/01/18 11:35:16;;;;;;;5.90;2.95;;;;;;;;;;5071038;28;20021;-78
2024/01/18 11:37:42;;;;;;;5.60;2.72;;;;;;;;;;5071107;28;20024;-79
2024/01/18 11:40:09;;;;;;;8.18;2.50;;;;;;;;;;5072449;28;20068;-78
2024/01/18 11:42:36;;;;;;;44.17;23.13;;;;;;;;;;5070990;28;20032;-79
2024/01/18 11:45:13;;;;;;;18.15;9.20;;;;;;;;;;5071165;28;20016;-79
2024/01/18 11:47:39;;;;;;;55.83;31.05;;;;;;;;;;5070796;28;20535;-79
2024/01/18 11:50:07;;;;;;;11.57;5.55;;;;;;;;;;5070918;28;20119;-79
2024/01/18 11:52:34;;;;;;;9.65;5.57;;;;;;;;;;5072223;28;20024;-79
2024/01/18 11:55:01;;;;;;;6.22;2.85;;;;;;;;;;5071137;28;20066;-78
2024/01/18 11:57:27;;;;;;;8.30;2.85;;;;;;;;;;5072224;28;20111;-79
2024/01/18 11:59:57;;;;;;;5.55;2.83;;;;;;;;;;5072237;28;20074;-78
2024/01/18 12:02:24;;;;;;;9.75;3.85;;;;;;;;;;5071039;28;20047;-78
2024/01/18 12:04:50;;;;;;;7.82;2.28;;;;;;;;;;5070953;28;20090;-78
2024/01/18 12:07:17;;;;;;;5.28;2.40;;;;;;;;;;5070899;28;20475;-78
2024/01/18 12:09:43;;;;;;;6.38;2.25;;;;;;;;;;5071708;28;20099;-79
2024/01/18 12:12:09;;;;;;;8.23;2.00;;;;;;;;;;5072065;28;20044;-79
2024/01/18 12:14:40;;;;;;;7.88;2.63;;;;;;;;;;5070526;28;20110;-78
2024/01/18 12:17:06;;;;;;;6.38;1.88;;;;;;;;;;5070776;28;20025;-78
2024/01/18 12:19:40;;;;;;;4.30;1.83;;;;;;;;;;5070670;28;20025;-78
2024/01/18 12:22:19;;;;;;;8.55;2.95;;;;;;;;;;5072105;28;20476;-78
2024/01/18 12:24:47;;;;;;;7.47;2.73;;;;;;;;;;5072011;28;20048;-78
2024/01/18 12:27:14;;;;;;;5.80;2.15;;;;;;;;;;5070925;28;20051;-79
2024/01/18 12:29:41;;;;;;;11.30;4.00;;;;;;;;;;5070552;28;20020;-79
2024/01/18 12:32:10;;;;;;;8.30;3.47;;;;;;;;;;5072200;28;20025;-79
2024/01/18 12:34:36;;;;;;;10.00;2.00;;;;;;;;;;5071877;28;20455;-77
2024/01/18 12:37:03;;;;;;;5.63;1.88;;;;;;;;;;5070731;28;20020;-79
2024/01/18 12:39:33;;;;;;;8.73;2.58;;;;;;;;;;5070522;28;20028;-77
2024/01/18 12:41:59;;;;;;;8.13;1.80;;;;;;;;;;5070348;28;20052;-78
2024/01/18 12:44:25;;;;;;;6.28;1.95;;;;;;;;;;5070503;28;20025;-78
2024/01/18 12:46:54;;;;;;;4.88;1.88;;;;;;;;;;5070765;28;20538;-77
2024/01/18 12:49:20;;;;;;;5.55;1.30;;;;;;;;;;5075408;28;20024;-77
2024/01/18 12:51:56;;;;;;;4.22;1.60;;;;;;;;;;5073884;28;20480;-78
2024/01/18 12:54:27;;;;;;;5.22;1.52;;;;;;;;;;5074297;28;20115;-78
2024/01/18 12:56:57;;;;;;;4.72;1.60;;;;;;;;;;5075705;28;20047;-78
2024/01/18 12:59:25;;;;;;;6.75;2.25;;;;;;;;;;5074377;28;20135;-78
2024/01/18 13:01:51;;;;;;;6.47;1.98;;;;;;;;;;5073768;28;20053;-78
2024/01/18 13:04:21;;;;;;;5.13;1.75;;;;;;;;;;5075568;28;20017;-77
2024/01/18 13:06:48;;;;;;;4.28;1.65;;;;;;;;;;5075675;28;20033;-76
2024/01/18 13:09:14;;;;;;;4.28;1.27;;;;;;;;;;5076018;28;20074;-79
2024/01/18 13:11:41;;;;;;;5.65;1.88;;;;;;;;;;5075846;28;20024;-78
2024/01/18 13:14:07;;;;;;;5.72;1.45;;;;;;;;;;5076683;28;20187;-76
2024/01/18 13:16:34;;;;;;;5.18;1.33;;;;;;;;;;5074137;28;20464;-77
2024/01/18 13:19:01;;;;;;;8.38;2.13;;;;;;;;;;5074490;28;20028;-76
2024/01/18 13:21:28;;;;;;;6.05;1.52;;;;;;;;;;5073783;28;20392;-77
2024/01/18 13:23:54;;;;;;;4.13;1.13;;;;;;;;;;5073525;28;20105;-77
2024/01/18 13:26:20;;;;;;;4.15;1.23;;;;;;;;;;5074889;28;20032;-78
2024/01/18 13:28:46;;;;;;;8.63;1.30;;;;;;;;;;5073273;28;20024;-78
2024/01/18 13:31:12;;;;;;;5.35;1.38;;;;;;;;;;5074815;28;20211;-79
2024/01/18 13:33:38;;;;;;;5.53;1.40;;;;;;;;;;5073263;28;20048;-79
2024/01/18 13:36:05;;;;;;;2.78;0.90;;;;;;;;;;5073285;28;20048;-77
2024/01/18 13:38:31;;;;;;;3.88;1.33;;;;;;;;;;5074201;28;20036;-77
2024/01/18 13:40:57;;;;;;;4.72;1.48;;;;;;;;;;5074273;28;20100;-79
2024/01/18 13:43:23;;;;;;;5.78;1.20;;;;;;;;;;5074443;28;20454;-78
2024/01/18 13:45:49;;;;;;;8.00;2.30;;;;;;;;;;5074052;28;20023;-79
2024/01/18 13:48:16;;;;;;;4.57;1.27;;;;;;;;;;5073109;28;20036;-79
2024/01/18 13:50:43;;;;;;;5.43;1.35;;;;;;;;;;5072858;28;20086;-78
2024/01/18 13:53:13;;;;;;;3.55;1.25;;;;;;;;;;5074319;28;20013;-79
2024/01/18 13:55:39;;;;;;;3.63;1.10;;;;;;;;;;5072733;28;20029;-78
2024/01/18 13:58:07;;;;;;;3.28;1.20;;;;;;;;;;5072757;28;20269;-79
2024/01/18 14:00:34;;;;;;;3.67;0.90;;;;;;;;;;5072224;28;20051;-79
2024/01/18 14:03:00;;;;;;;5.43;1.00;;;;;;;;;;5072808;28;20060;-78
2024/01/18 14:05:31;;;;;;;3.05;0.70;;;;;;;;;;5072712;28;20024;-78
2024/01/18 14:07:57;;;;;;;2.90;1.00;;;;;;;;;;5073918;28;20479;-78
2024/01/18 14:10:23;;;;;;;2.83;0.88;;;;;;;;;;5072817;28;20035;-78
2024/01/18 14:12:49;;;;;;;4.68;1.02;;;;;;;;;;5072456;28;20021;-78
2024/01/18 14:15:15;;;;;;;3.15;1.00;;;;;;;;;;5072688;28;20090;-79
2024/01/18 14:17:41;;;;;;;2.95;1.10;;;;;;;;;;5073881;28;20024;-79
2024/01/18 14:20:09;;;;;;;3.75;0.85;;;;;;;;;;5072561;28;20031;-79
2024/01/18 14:22:35;;;;;;;3.80;1.27;;;;;;;;;;5073293;28;20384;-79
2024/01/18 14:25:01;;;;;;;4.55;0.60;;;;;;;;;;5074066;28;20021;-79
2024/01/18 14:27:27;;;;;;;6.75;0.68;;;;;;;;;;5073722;28;20016;-79
2024/01/18 14:29:53;;;;;;;2.55;1.00;;;;;;;;;;5073318;28;20415;-79
2024/01/18 14:32:19;;;;;;;5.07;1.10;;;;;;;;;;5073633;28;20527;-79
2024/01/18 14:34:45;;;;;;;4.30;0.70;;;;;;;;;;5072101;28;20029;-79
2024/01/18 14:37:12;;;;;;;3.80;0.73;;;;;;;;;;5073495;28;20473;-79
2024/01/18 14:39:38;;;;;;;2.47;0.47;;;;;;;;;;5072066;28;20464;-78
2024/01/18 14:42:05;;;;;;;1.67;0.63;;;;;;;;;;5073489;28;20059;-79
2024/01/18 14:44:37;;;;;;;4.07;0.70;;;;;;;;;;5072070;28;20473;-79
2024/01/18 14:47:06;;;;;;;2.97;0.63;;;;;;;;;;5072172;28;20024;-79
2024/01/18 14:49:33;;;;;;;2.88;1.02;;;;;;;;;;5072027;28;20028;-79
2024/01/18 14:51:59;;;;;;;6.88;2.65;;;;;;;;;;5072100;28;20384;-79
2024/01/18 14:54:25;;;;;;;11.80;4.35;;;;;;;;;;5073376;28;20017;-79
2024/01/18 14:56:52;;;;;;;26.67;12.15;;;;;;;;;;5071906;28;20025;-78
2024/01/18 14:59:19;;;;;;;37.95;17.95;;;;;;;;;;5072640;28;20024;-79
2024/01/18 15:01:45;;;;;;;32.92;14.70;;;;;;;;;;5073233;28;20056;-79
2024/01/18 15:04:13;;;;;;;20.17;9.18;;;;;;;;;;5074180;28;20020;-78
2024/01/18 15:06:39;;;;;;;7.25;2.65;;;;;;;;;;5074257;28;20032;-78
2024/01/18 15:09:05;;;;;;;7.00;2.50;;;;;;;;;;5071708;28;20016;-78
2024/01/18 15:11:31;;;;;;;20.33;11.65;;;;;;;;;;5071630;28;20111;-77
2024/01/18 15:13:57;;;;;;;4.82;1.80;;;;;;;;;;5071786;28;20470;-78
2024/01/18 15:16:24;;;;;;;3.22;1.73;;;;;;;;;;5073177;28;20036;-78
2024/01/18 15:18:50;;;;;;;5.78;1.60;;;;;;;;;;5073104;28;20025;-79
2024/01/18 15:21:16;;;;;;;5.22;1.35;;;;;;;;;;5070999;28;20515;-79
2024/01/18 15:23:42;;;;;;;5.38;1.17;;;;;;;;;;5072245;28;20028;-79
2024/01/18 15:26:08;;;;;;;5.90;1.90;;;;;;;;;;5072625;28;20024;-80
2024/01/18 15:28:35;;;;;;;4.40;2.10;;;;;;;;;;5071452;28;20509;-77
2024/01/18 15:31:01;;;;;;;8.90;2.88;;;;;;;;;;5072537;28;20460;-77
2024/01/18 15:33:27;;;;;;;5.25;2.10;;;;;;;;;;5071958;28;20029;-76
2024/01/18 15:35:53;;;;;;;6.90;1.83;;;;;;;;;;5073469;28;20067;-76
2024/01/18 15:38:19;;;;;;;6.55;2.60;;;;;;;;;;5071292;28;20025;-77
2024/01/18 15:40:45;;;;;;;4.88;2.20;;;;;;;;;;5070815;28;20491;-77
2024/01/18 15:43:12;;;;;;;4.32;1.80;;;;;;;;;;5071094;28;20028;-77
2024/01/18 15:45:40;;;;;;;3.65;1.85;;;;;;;;;;5070824;28;20524;-77
2024/01/18 15:48:06;;;;;;;35.22;22.80;;;;;;;;;;5070786;28;20032;-77
2024/01/18 15:50:33;;;;;;;9.77;5.30;;;;;;;;;;5072056;28;20438;-77
2024/01/18 15:52:59;;;;;;;5.25;2.95;;;;;;;;;;5070589;28;20075;-78
2024/01/18 15:55:25;;;;;;;6.25;2.55;;;;;;;;;;5071911;28;20098;-77
2024/01/18 15:57:51;;;;;;;5.63;2.20;;;;;;;;;;5070474;28;20060;-77
2024/01/18 16:00:17;;;;;;;3.67;1.70;;;;;;;;;;5071787;28;20049;-77
2024/01/18 16:02:43;;;;;;;2.70;1.35;;;;;;;;;;5070615;28;20020;-77
2024/01/18 16:05:09;;;;;;;5.22;1.80;;;;;;;;;;5072168;28;20022;-77
2024/01/18 16:07:36;;;;;;;5.07;1.63;;;;;;;;;;5071800;28;20380;-77
2024/01/18 16:10:06;;;;;;;6.63;1.30;;;;;;;;;;5070690;28;20052;-76
2024/01/18 16:12:32;;;;;;;3.65;0.90;;;;;;;;;;5072328;28;20021;-77
2024/01/18 16:14:58;;;;;;;1.88;0.98;;;;;;;;;;5070482;28;20032;-78
2024/01/18 16:17:24;;;;;;;2.92;0.90;;;;;;;;;;5072201;28;20027;-77
2024/01/18 16:19:50;;;;;;;9.07;1.35;;;;;;;;;;5070483;28;20033;-78
2024/01/18 16:22:17;;;;;;;3.28;1.20;;;;;;;;;;5073351;28;20041;-78
2024/01/18 16:24:43;;;;;;;3.50;1.08;;;;;;;;;;5074673;28;20120;-76
2024/01/18 16:27:10;;;;;;;4.72;1.60;;;;;;;;;;5076047;28;20021;-76
2024/01/18 16:29:36;;;;;;;6.10;3.17;;;;;;;;;;5074640;28;20156;-77
2024/01/18 16:32:02;;;;;;;6.63;1.90;;;;;;;;;;5075637;28;20034;-77
2024/01/18 16:34:29;;;;;;;11.32;2.33;;;;;;;;;;5074493;28;20044;-77
2024/01/18 16:36:54;;;;;;;4.63;1.73;;;;;;;;;;5074267;28;20024;-77
2024/01/18 16:39:21;;;;;;;5.55;1.98;;;;;;;;;;5075496;28;20020;-77
2024/01/18 16:41:48;;;;;;;7.18;1.83;;;;;;;;;;5075250;28;20031;-77
2024/01/18 16:44:14;;;;;;;7.30;2.10;;;;;;;;;;5074300;28;20062;-77
2024/01/18 16:46:40;;;;;;;10.75;2.75;;;;;;;;;;5075327;28;20017;-75
2024/01/18 16:49:06;;;;;;;6.18;2.95;;;;;;;;;;5074276;28;20020;-76
2024/01/18 16:51:33;;;;;;;10.60;3.85;;;;;;;;;;5074072;28;20029;-76
2024/01/18 16:53:59;;;;;;;10.48;4.32;;;;;;;;;;5073928;28;20032;-76
2024/01/18 16:56:25;;;;;;;4.53;2.00;;;;;;;;;;5074100;28;20024;-78
2024/01/18 16:58:51;;;;;;;5.47;1.67;;;;;;;;;;5073905;28;20532;-77
2024/01/18 17:01:18;;;;;;;5.55;2.15;;;;;;;;;;5073672;28;20101;-76
2024/01/18 17:03:44;;;;;;;4.45;2.13;;;;;;;;;;5074816;28;20483;-76
2024/01/18 17:06:10;;;;;;;5.85;2.10;;;;;;;;;;5073860;28;20486;-77
2024/01/18 17:08:37;;;;;;;6.55;2.13;;;;;;;;;;5075164;28;20060;-77
2024/01/18 17:11:03;;;;;;;4.88;1.70;;;;;;;;;;5074835;28;20020;-77
2024/01/18 17:13:29;;;;;;;5.95;2.00;;;;;;;;;;5073787;28;20025;-77
2024/01/18 17:15:55;;;;;;;5.38;1.92;;;;;;;;;;5074632;28;20027;-77
2024/01/18 17:18:21;;;;;;;8.30;1.75;;;;;;;;;;5075023;28;20021;-77
2024/01/18 17:20:47;;;;;;;5.30;1.95;;;;;;;;;;5073425;28;20037;-77
2024/01/18 17:23:13;;;;;;;4.65;2.13;;;;;;;;;;5073666;28;20021;-77
2024/01/18 17:25:40;;;;;;;7.38;2.50;;;;;;;;;;5073734;28;20032;-77
2024/01/18 17:28:06;;;;;;;5.43;1.77;;;;;;;;;;5073470;28;20024;-77
2024/01/18 17:30:32;;;;;;;4.45;2.03;;;;;;;;;;5073586;28;20029;-77
2024/01/18 17:32:58;;;;;;;18.33;10.90;;;;;;;;;;5072762;28;20517;-77
2024/01/18 17:35:25;;;;;;;6.38;1.98;;;;;;;;;;5074749;28;20016;-77
2024/01/18 17:37:51;;;;;;;4.78;1.77;;;;;;;;;;5073160;28;20059;-77
2024/01/18 17:40:20;;;;;;;5.85;2.78;;;;;;;;;;5073185;28;20384;-77
2024/01/18 17:42:46;;;;;;;8.80;2.45;;;;;;;;;;5074572;28;20012;-77
2024/01/18 17:45:12;;;;;;;8.32;2.80;;;;;;;;;;5073467;28;20040;-77
2024/01/18 17:47:39;;;;;;;7.28;2.33;;;;;;;;;;5073795;28;20027;-76
2024/01/18 17:50:08;;;;;;;9.10;2.50;;;;;;;;;;5073774;28;20028;-74
2024/01/18 17:52:34;;;;;;;4.13;1.90;;;;;;;;;;5073765;28;20028;-75
2024/01/18 17:55:00;;;;;;;1.95;1.52;;;;;;;;;;5073173;28;20055;-78
2024/01/18 17:57:27;;;;;;;5.88;2.03;;;;;;;;;;5073119;28;20062;-76
2024/01/18 17:59:53;;;;;;;11.38;2.25;;;;;;;;;;5072922;28;20020;-77
2024/01/18 18:02:19;;;;;;;4.40;1.92;;;;;;;;;;5072886;28;20084;-78
2024/01/18 18:04:45;;;;;;;6.75;1.92;;;;;;;;;;5072733;28;20024;-77
2024/01/18 18:07:11;;;;;;;5.80;2.83;;;;;;;;;;5073033;28;20466;-79
2024/01/18 18:09:40;;;;;;;7.68;2.33;;;;;;;;;;5074230;28;20379;-78
2024/01/18 18:12:06;;;;;;;8.10;3.08;;;;;;;;;;5072652;28;20380;-76
2024/01/18 18:14:33;;;;;;;10.38;3.13;;;;;;;;;;5073268;28;20029;-77
2024/01/18 18:16:59;;;;;;;7.07;3.63;;;;;;;;;;5074177;28;20017;-78
2024/01/18 18:19:25;;;;;;;12.30;3.38;;;;;;;;;;5074418;28;20032;-77
2024/01/18 18:21:52;;;;;;;8.88;3.17;;;;;;;;;;5072313;28;20032;-76
2024/01/18 18:24:18;;;;;;;6.75;3.63;;;;;;;;;;5073041;28;20055;-78
2024/01/18 18:26:44;;;;;;;9.35;3.97;;;;;;;;;;5072974;28;20020;-78
2024/01/18 18:29:10;;;;;;;7.72;3.03;;;;;;;;;;5074392;28;20067;-78
2024/01/18 18:31:36;;;;;;;9.90;4.05;;;;;;;;;;5072925;28;20029;-77
2024/01/18 18:34:02;;;;;;;14.10;4.85;;;;;;;;;;5072847;28;20042;-77
2024/01/18 18:36:29;;;;;;;10.88;4.80;;;;;;;;;;5073155;28;20112;-77
2024/01/18 18:38:55;;;;;;;10.63;3.90;;;;;;;;;;5072649;28;20021;-77
2024/01/18 18:41:22;;;;;;;14.43;5.88;;;;;;;;;;5072870;28;20024;-77
2024/01/18 18:43:48;;;;;;;7.65;3.47;;;;;;;;;;5056073;28;20086;-79
2024/01/18 18:46:14;;;;;;;10.68;5.00;;;;;;;;;;5071960;28;20034;-78
2024/01/18 18:48:41;;;;;;;8.20;3.42;;;;;;;;;;5072425;28;20031;-78
2024/01/18 18:51:08;;;;;;;16.48;6.13;;;;;;;;;;5074051;28;20043;-76
2024/01/18 18:53:35;;;;;;;9.00;4.22;;;;;;;;;;5072375;28;20096;-78
2024/01/18 18:56:01;;;;;;;10.73;6.57;;;;;;;;;;5072418;28;20031;-78
2024/01/18 18:58:28;;;;;;;10.30;4.95;;;;;;;;;;5072460;28;20122;-79
2024/01/18 19:00:54;;;;;;;11.82;4.78;;;;;;;;;;5072243;28;20063;-78
2024/01/18 19:03:21;;;;;;;8.50;4.85;;;;;;;;;;5072670;28;20503;-78
2024/01/18 19:05:50;;;;;;;8.10;3.95;;;;;;;;;;5073522;28;20020;-77
2024/01/18 19:08:16;;;;;;;7.10;4.17;;;;;;;;;;5073575;28;20480;-78
2024/01/18 19:10:43;;;;;;;10.82;4.95;;;;;;;;;;5071943;28;20024;-78
2024/01/18 19:13:09;;;;;;;10.57;4.00;;;;;;;;;;5072337;28;20017;-78
2024/01/18 19:15:35;;;;;;;20.45;5.18;;;;;;;;;;5072527;28;20119;-78
2024/01/18 19:18:02;;;;;;;10.05;4.13;;;;;;;;;;5071917;28;20380;-78
2024/01/18 19:20:28;;;;;;;10.80;4.47;;;;;;;;;;5072841;28;20549;-78
2024/01/18 19:22:54;;;;;;;8.75;4.43;;;;;;;;;;5071917;28;20025;-77
2024/01/18 19:25:20;;;;;;;13.00;4.70;;;;;;;;;;5073619;28;20082;-78
2024/01/18 19:27:46;;;;;;;13.20;5.18;;;;;;;;;;5071916;28;20028;-78
2024/01/18 19:30:12;;;;;;;9.15;4.10;;;;;;;;;;5072233;28;20029;-78
2024/01/18 19:32:39;;;;;;;33.22;11.30;;;;;;;;;;5071870;28;20032;-78
2024/01/18 19:35:05;;;;;;;30.00;11.20;;;;;;;;;;5071928;28;20282;-78
2024/01/18 19:37:32;;;;;;;13.85;4.07;;;;;;;;;;5072063;28;20025;-78
2024/01/18 19:39:59;;;;;;;16.73;10.35;;;;;;;;;;5072909;28;20491;-78
2024/01/18 19:42:25;;;;;;;21.50;15.02;;;;;;;;;;5072867;28;20456;-77
2024/01/18 19:44:52;;;;;;;9.95;4.20;;;;;;;;;;5071602;28;20468;-77
2024/01/18 19:47:18;;;;;;;12.82;4.30;;;;;;;;;;5073009;28;20115;-77
2024/01/18 19:49:44;;;;;;;12.07;4.00;;;;;;;;;;5071531;28;20025;-79
2024/01/18 19:52:10;;;;;;;11.80;5.60;;;;;;;;;;5073186;28;20448;-78
2024/01/18 19:54:37;;;;;;;10.75;3.88;;;;;;;;;;5072246;28;20442;-78
2024/01/18 19:57:04;;;;;;;11.45;6.25;;;;;;;;;;5071977;28;20056;-77
2024/01/18 19:59:30;;;;;;;9.52;4.35;;;;;;;;;;5072809;28;20029;-77
2024/01/18 20:02:03;;;;;;;8.95;3.72;;;;;;;;;;5072495;28;20084;-77
2024/01/18 20:04:33;;;;;;;12.38;5.03;;;;;;;;;;5075008;28;20020;-76
2024/01/18 20:06:59;;;;;;;18.60;6.72;;;;;;;;;;5074367;28;20031;-76
2024/01/18 20:09:25;;;;;;;13.88;6.50;;;;;;;;;;5075366;28;20456;-78
2024/01/18 20:11:51;;;;;;;15.57;6.47;;;;;;;;;;5071451;28;20039;-78
2024/01/18 20:14:17;;;;;;;12.90;7.20;;;;;;;;;;5071771;28;20021;-78
2024/01/18 20:16:43;;;;;;;12.60;7.53;;;;;;;;;;5071422;28;20029;-77
2024/01/18 20:19:10;;;;;;;16.08;8.65;;;;;;;;;;5071699;28;20465;-78
2024/01/18 20:21:36;;;;;;;13.07;7.50;;;;;;;;;;5071382;28;20036;-79
2024/01/18 20:24:03;;;;;;;19.88;6.95;;;;;;;;;;5071140;28;20365;-78
2024/01/18 20:26:29;;;;;;;13.90;7.32;;;;;;;;;;5071319;28;20021;-77
2024/01/18 20:28:55;;;;;;;12.88;6.70;;;;;;;;;;5071192;28;20028;-79
2024/01/18 20:31:21;;;;;;;13.15;6.30;;;;;;;;;;5071144;28;20028;-79
2024/01/18 20:33:47;;;;;;;11.35;6.00;;;;;;;;;;5072327;28;20028;-78
2024/01/18 20:36:13;;;;;;;17.80;7.25;;;;;;;;;;5070974;28;20031;-77
2024/01/18 20:38:39;;;;;;;16.67;5.97;;;;;;;;;;5071338;28;20380;-78
2024/01/18 20:41:07;;;;;;;11.25;5.85;;;;;;;;;;5071468;28;20025;-77
2024/01/18 20:43:33;;;;;;;12.75;7.63;;;;;;;;;;5072969;28;20540;-77
2024/01/18 20:46:01;;;;;;;15.35;7.15;;;;;;;;;;5072223;28;20074;-78
2024/01/18 20:48:28;;;;;;;11.82;6.07;;;;;;;;;;5071034;28;20031;-78
2024/01/18 20:50:54;;;;;;;14.90;8.35;;;;;;;;;;5070992;28;20032;-79
2024/01/18 20:53:20;;;;;;;18.10;8.15;;;;;;;;;;5071481;28;20033;-79
2024/01/18 20:55:46;;;;;;;20.50;9.93;;;;;;;;;;5071159;28;20054;-79
2024/01/18 20:58:13;;;;;;;21.35;10.30;;;;;;;;;;5071082;28;20017;-78
2024/01/18 21:00:39;;;;;;;21.20;11.27;;;;;;;;;;5070687;28;20059;-78
2024/01/18 21:03:10;;;;;;;21.48;13.27;;;;;;;;;;5071158;28;20476;-79
2024/01/18 21:05:37;;;;;;;19.08;11.05;;;;;;;;;;5071226;28;20028;-78
2024/01/18 21:08:03;;;;;;;22.85;11.25;;;;;;;;;;5071935;28;20495;-78
2024/01/18 21:10:29;;;;;;;24.58;12.98;;;;;;;;;;5074795;28;20032;-78
2024/01/18 21:12:55;;;;;;;24.52;11.82;;;;;;;;;;5074234;28;20028;-78
2024/01/18 21:15:21;;;;;;;25.95;14.00;;;;;;;;;;5076347;28;20021;-79
2024/01/18 21:17:48;;;;;;;24.60;13.88;;;;;;;;;;5074298;28;20021;-78
2024/01/18 21:20:16;;;;;;;26.35;14.50;;;;;;;;;;5076096;28;20032;-78
2024/01/18 21:22:42;;;;;;;19.17;11.68;;;;;;;;;;5074641;28;20468;-78
2024/01/18 21:25:08;;;;;;;20.42;13.27;;;;;;;;;;5074219;28;20024;-80
2024/01/18 21:27:34;;;;;;;14.05;7.57;;;;;;;;;;5074278;28;20025;-78
2024/01/18 21:30:00;;;;;;;26.88;13.77;;;;;;;;;;5074381;28;20106;-79
2024/01/18 21:32:26;;;;;;;28.98;13.48;;;;;;;;;;5074772;28;20039;-79
2024/01/18 21:34:52;;;;;;;26.08;13.80;;;;;;;;;;5074559;28;20024;-80
2024/01/18 21:37:18;;;;;;;20.30;11.98;;;;;;;;;;5074966;28;20028;-79
2024/01/18 21:39:44;;;;;;;21.10;11.50;;;;;;;;;;5075091;28;20491;-79
2024/01/18 21:42:10;;;;;;;21.88;10.50;;;;;;;;;;5074800;28;20024;-80
2024/01/18 21:44:36;;;;;;;19.77;10.57;;;;;;;;;;5074828;28;20032;-80
2024/01/18 21:47:03;;;;;;;22.15;12.32;;;;;;;;;;5074872;28;20044;-80
2024/01/18 21:49:30;;;;;;;21.15;11.45;;;;;;;;;;5075277;28;20020;-79
2024/01/18 21:51:56;;;;;;;22.45;10.68;;;;;;;;;;5074501;28;20110;-78
2024/01/18 21:54:25;;;;;;;22.95;10.38;;;;;;;;;;5074479;28;20024;-76
2024/01/18 21:56:51;;;;;;;21.35;11.02;;;;;;;;;;5075566;28;20031;-77
2024/01/18 21:59:17;;;;;;;22.02;12.25;;;;;;;;;;5073849;28;20062;-77
2024/01/18 22:01:43;;;;;;;18.85;11.65;;;;;;;;;;5073639;28;20051;-78
2024/01/18 22:04:09;;;;;;;21.75;10.60;;;;;;;;;;5073638;28;20029;-77
2024/01/18 22:06:36;;;;;;;23.80;10.77;;;;;;;;;;5073869;28;20400;-79
2024/01/18 22:09:02;;;;;;;20.17;9.65;;;;;;;;;;5074045;28;20028;-77
2024/01/18 22:11:28;;;;;;;16.98;11.38;;;;;;;;;;5075330;28;20032;-78
2024/01/18 22:13:54;;;;;;;20.95;10.48;;;;;;;;;;5075566;28;20020;-77
2024/01/18 22:16:20;;;;;;;28.95;12.13;;;;;;;;;;5075606;28;20020;-79
2024/01/18 22:18:47;;;;;;;19.08;9.90;;;;;;;;;;5078791;28;20075;-78
2024/01/18 22:21:13;;;;;;;33.03;16.27;;;;;;;;;;5085580;28;20062;-76
2024/01/18 22:23:40;;;;;;;39.78;20.38;;;;;;;;;;5083211;28;20016;-76
2024/01/18 22:26:06;;;;;;;24.52;12.00;;;;;;;;;;5078443;28;20032;-78
2024/01/18 22:28:32;;;;;;;28.38;13.65;;;;;;;;;;5073940;28;20020;-77
2024/01/18 22:30:58;;;;;;;23.38;10.30;;;;;;;;;;5073407;28;20047;-78
2024/01/18 22:33:24;;;;;;;18.95;10.63;;;;;;;;;;5073152;28;20017;-79